Time;durP1;ratioP1;P1;durP2;ratioP2;P2;SDS_P1;SDS_P2;PMS_P1;PMS_P2;Temp;Humidity;BMP_temperature;BMP_pressure;BME280_temperature;BME280_humidity;BME280_pressure;Samples;Min_cycle;Max_cycle;Signal;HPM_P1;HPM_P2
2021/10/07 00:00:47;;;;;;;9.00;8.30;;;8.20;88.90;;;;;;5019153;29;20046;-70
2021/10/07 00:03:19;;;;;;;9.52;8.77;;;8.20;88.50;;;;;;5020412;29;20049;-70
2021/10/07 00:05:52;;;;;;;9.35;8.65;;;8.20;88.20;;;;;;5001971;29;20053;-69
2021/10/07 00:08:23;;;;;;;9.40;8.65;;;8.30;88.00;;;;;;5019465;29;20494;-69
2021/10/07 00:10:55;;;;;;;9.43;8.63;;;8.30;88.40;;;;;;5003056;29;20828;-69
2021/10/07 00:13:28;;;;;;;9.40;8.60;;;8.30;88.70;;;;;;5019330;29;20061;-66
2021/10/07 00:16:00;;;;;;;9.45;8.65;;;8.30;89.10;;;;;;5018355;29;20132;-68
2021/10/07 00:18:37;;;;;;;9.45;8.75;;;8.30;89.70;;;;;;5001747;29;20053;-69
2021/10/07 00:21:10;;;;;;;9.70;8.90;;;8.20;89.10;;;;;;5018547;29;20462;-68
2021/10/07 00:23:55;;;;;;;9.45;8.70;;;8.30;88.80;;;;;;5019468;29;20061;-68
2021/10/07 00:26:27;;;;;;;9.50;8.70;;;8.30;88.70;;;;;;5017078;29;20772;-68
2021/10/07 00:29:06;;;;;;;9.40;8.70;;;8.30;88.30;;;;;;4996546;29;20137;-70
2021/10/07 00:31:40;;;;;;;9.27;8.38;;;8.40;88.90;;;;;;5018215;29;20130;-68
2021/10/07 00:34:19;;;;;;;9.07;8.38;;;8.30;88.80;;;;;;5020128;29;20081;-68
2021/10/07 00:39:35;;;;;;;9.20;8.50;;;8.40;88.60;;;;;;5018670;29;20180;-70
2021/10/07 00:42:06;;;;;;;9.45;8.75;;;8.40;88.60;;;;;;5017256;29;20081;-69
2021/10/07 00:44:44;;;;;;;9.40;8.60;;;8.40;88.80;;;;;;5019009;29;20458;-69
2021/10/07 00:47:17;;;;;;;9.30;8.50;;;8.40;89.00;;;;;;5018462;29;20053;-68
2021/10/07 00:49:49;;;;;;;9.30;8.60;;;8.30;88.90;;;;;;5019347;29;20476;-68
2021/10/07 00:52:21;;;;;;;9.57;8.88;;;8.30;89.20;;;;;;5019076;29;20065;-68
2021/10/07 00:54:55;;;;;;;9.40;8.70;;;8.20;88.80;;;;;;5019303;29;20045;-68
2021/10/07 00:57:27;;;;;;;9.05;8.35;;;8.20;88.60;;;;;;5017353;29;20583;-68
2021/10/07 00:59:59;;;;;;;9.45;8.75;;;8.20;88.50;;;;;;5019325;29;20105;-68
2021/10/07 01:02:31;;;;;;;9.45;8.75;;;8.30;88.70;;;;;;5018080;29;20064;-69
2021/10/07 01:05:04;;;;;;;9.48;8.68;;;8.30;88.60;;;;;;5018938;29;20054;-70
2021/10/07 01:07:36;;;;;;;9.45;8.75;;;8.30;88.20;;;;;;5017253;29;20148;-68
2021/10/07 01:10:08;;;;;;;9.40;8.70;;;8.30;88.60;;;;;;5017801;29;20505;-69
2021/10/07 01:12:40;;;;;;;9.50;8.80;;;8.30;88.60;;;;;;5018430;29;20038;-68
2021/10/07 01:15:12;;;;;;;9.70;8.88;;;8.30;88.40;;;;;;5018209;29;20072;-68
2021/10/07 01:17:43;;;;;;;9.50;8.80;;;8.30;88.60;;;;;;5017207;29;20893;-68
2021/10/07 01:20:17;;;;;;;9.70;8.90;;;8.30;88.60;;;;;;5018412;29;20104;-68
2021/10/07 01:22:49;;;;;;;9.60;8.80;;;8.40;88.70;;;;;;5017758;29;20134;-67
2021/10/07 01:25:21;;;;;;;9.32;8.52;;;8.30;88.50;;;;;;5017072;29;20045;-68
2021/10/07 01:27:55;;;;;;;9.55;8.75;;;8.40;88.30;;;;;;5017806;29;20049;-68
2021/10/07 01:30:28;;;;;;;9.48;8.77;;;8.30;88.40;;;;;;5017765;29;20055;-68
2021/10/07 01:33:00;;;;;;;9.45;8.70;;;8.30;88.40;;;;;;5017343;29;20045;-70
2021/10/07 01:35:32;;;;;;;9.45;8.75;;;8.30;88.80;;;;;;5001199;29;20053;-68
2021/10/07 01:38:04;;;;;;;9.30;8.60;;;8.30;88.60;;;;;;5016997;29;20424;-69
2021/10/07 01:40:36;;;;;;;9.80;8.90;;;8.30;88.80;;;;;;5017026;29;20045;-68
2021/10/07 01:43:08;;;;;;;10.13;9.43;;;8.40;88.40;;;;;;5017527;29;20132;-68
2021/10/07 01:45:40;;;;;;;9.35;8.65;;;8.40;88.20;;;;;;5017081;29;20508;-68
2021/10/07 01:48:13;;;;;;;9.57;8.88;;;8.40;88.50;;;;;;5017240;29;20057;-69
2021/10/07 01:50:46;;;;;;;9.30;8.60;;;8.40;88.40;;;;;;5017033;29;20535;-68
2021/10/07 01:53:18;;;;;;;9.65;8.75;;;8.40;88.10;;;;;;5017989;29;20105;-68
2021/10/07 01:55:50;;;;;;;9.30;8.50;;;8.40;88.10;;;;;;5016278;29;20136;-68
2021/10/07 01:58:25;;;;;;;9.27;8.57;;;8.40;88.30;;;;;;5016445;29;20061;-68
2021/10/07 02:00:57;;;;;;;9.00;8.20;;;8.30;88.30;;;;;;5017600;29;20172;-69
2021/10/07 02:03:29;;;;;;;8.80;8.10;;;8.30;87.80;;;;;;5017663;29;20045;-68
2021/10/07 02:06:01;;;;;;;9.15;8.45;;;8.30;88.20;;;;;;5017209;29;20049;-69
2021/10/07 02:08:32;;;;;;;8.93;8.23;;;8.30;88.60;;;;;;5015899;29;20130;-68
2021/10/07 02:11:04;;;;;;;9.38;8.48;;;8.30;88.70;;;;;;5017096;29;20061;-68
2021/10/07 02:13:37;;;;;;;9.00;8.20;;;8.20;89.00;;;;;;5016645;29;20053;-67
2021/10/07 02:16:08;;;;;;;9.10;8.40;;;8.20;88.90;;;;;;5016328;29;20153;-68
2021/10/07 02:18:40;;;;;;;9.07;8.38;;;8.20;88.80;;;;;;5017856;29;20516;-69
2021/10/07 02:21:13;;;;;;;9.23;8.45;;;8.20;88.90;;;;;;5016955;29;20112;-69
2021/10/07 02:23:45;;;;;;;9.13;8.43;;;8.30;89.40;;;;;;5017165;29;20153;-68
2021/10/07 02:26:17;;;;;;;9.35;8.52;;;8.30;89.50;;;;;;5016381;29;20064;-68
2021/10/07 02:28:49;;;;;;;9.20;8.40;;;8.20;89.80;;;;;;5017824;29;20144;-68
2021/10/07 02:31:22;;;;;;;8.98;8.25;;;8.10;90.30;;;;;;5016551;29;20061;-68
2021/10/07 02:33:54;;;;;;;9.00;8.30;;;8.10;90.40;;;;;;5017096;29;20053;-68
2021/10/07 02:36:27;;;;;;;9.27;8.57;;;8.10;90.30;;;;;;5015930;29;20056;-68
2021/10/07 02:38:59;;;;;;;9.13;8.43;;;8.00;90.70;;;;;;5016908;29;20049;-67
2021/10/07 02:41:32;;;;;;;9.10;8.30;;;8.10;91.10;;;;;;5016858;29;20583;-70
2021/10/07 02:44:04;;;;;;;9.60;8.85;;;8.00;90.80;;;;;;5017238;29;20136;-69
2021/10/07 02:46:36;;;;;;;9.70;8.90;;;8.10;90.60;;;;;;5016404;29;20049;-69
2021/10/07 02:49:08;;;;;;;9.30;8.60;;;8.10;90.20;;;;;;5016572;29;20077;-68
2021/10/07 02:51:40;;;;;;;9.82;9.10;;;8.20;90.00;;;;;;5015658;29;20078;-68
2021/10/07 02:54:12;;;;;;;9.50;8.70;;;8.20;89.80;;;;;;5014005;29;20150;-69
2021/10/07 02:56:44;;;;;;;9.60;8.80;;;8.20;89.70;;;;;;5018021;29;20144;-67
2021/10/07 02:59:15;;;;;;;9.50;8.80;;;8.20;90.00;;;;;;5021385;29;20137;-68
2021/10/07 03:01:47;;;;;;;9.23;8.40;;;8.20;89.80;;;;;;5003777;29;20068;-68
2021/10/07 03:04:19;;;;;;;8.95;8.25;;;8.30;89.70;;;;;;5021169;29;20049;-67
2021/10/07 03:06:51;;;;;;;8.80;8.10;;;8.20;89.80;;;;;;5020205;29;20042;-68
2021/10/07 03:09:23;;;;;;;9.13;8.43;;;8.30;89.80;;;;;;5021282;29;20560;-68
2021/10/07 03:11:55;;;;;;;9.18;8.48;;;8.20;89.90;;;;;;5020987;29;20174;-67
2021/10/07 03:14:27;;;;;;;8.90;8.20;;;8.20;90.00;;;;;;5021342;29;21131;-67
2021/10/07 03:16:59;;;;;;;8.95;8.25;;;8.20;89.70;;;;;;5020370;29;20045;-67
2021/10/07 03:19:32;;;;;;;9.38;8.57;;;8.20;89.60;;;;;;5020979;29;20408;-67
2021/10/07 03:22:05;;;;;;;9.00;8.30;;;8.10;89.90;;;;;;5021159;29;20053;-68
2021/10/07 03:24:37;;;;;;;9.38;8.60;;;8.10;90.00;;;;;;5018957;29;20133;-70
2021/10/07 03:27:09;;;;;;;8.75;8.05;;;8.10;90.20;;;;;;5019810;29;20045;-71
2021/10/07 03:29:41;;;;;;;9.20;8.40;;;8.10;90.10;;;;;;5004490;29;20042;-67
2021/10/07 03:32:13;;;;;;;8.88;8.10;;;8.10;90.20;;;;;;5020202;29;20045;-69
2021/10/07 03:34:45;;;;;;;9.20;8.43;;;8.10;90.20;;;;;;5019445;29;20148;-69
2021/10/07 03:37:17;;;;;;;9.15;8.40;;;8.20;90.10;;;;;;5019794;29;20106;-68
2021/10/07 03:39:49;;;;;;;9.05;8.35;;;8.20;90.10;;;;;;5021271;29;20090;-68
2021/10/07 03:42:21;;;;;;;9.32;8.63;;;8.20;90.00;;;;;;5018429;29;20054;-68
2021/10/07 03:44:53;;;;;;;8.82;8.02;;;8.10;90.20;;;;;;5004804;29;20046;-68
2021/10/07 03:47:25;;;;;;;8.80;8.10;;;8.20;90.20;;;;;;5019123;29;20058;-68
2021/10/07 03:49:57;;;;;;;9.05;8.25;;;8.20;90.10;;;;;;5004471;29;20041;-69
2021/10/07 03:52:29;;;;;;;9.40;8.60;;;8.20;90.20;;;;;;4987350;29;20156;-68
2021/10/07 03:55:01;;;;;;;8.60;7.90;;;8.20;90.00;;;;;;5002915;29;20501;-68
2021/10/07 03:57:34;;;;;;;8.60;7.90;;;8.20;90.10;;;;;;5020191;29;20057;-67
2021/10/07 04:00:08;;;;;;;8.60;7.90;;;8.20;89.80;;;;;;5020383;29;20064;-68
2021/10/07 04:02:42;;;;;;;8.50;7.80;;;8.20;89.80;;;;;;5019136;29;20702;-69
2021/10/07 04:05:14;;;;;;;8.50;7.80;;;8.20;89.70;;;;;;5019316;29;20046;-69
2021/10/07 04:07:46;;;;;;;9.00;8.10;;;8.20;89.80;;;;;;5019246;29;20480;-68
2021/10/07 04:10:18;;;;;;;8.85;8.15;;;8.20;89.60;;;;;;5021032;29;20072;-67
2021/10/07 04:12:50;;;;;;;8.40;7.70;;;8.20;89.70;;;;;;5019056;29;20385;-69
2021/10/07 04:15:23;;;;;;;8.65;7.85;;;8.30;89.60;;;;;;5019422;29;20101;-68
2021/10/07 04:17:55;;;;;;;9.15;8.35;;;8.30;89.20;;;;;;5019606;29;20109;-70
2021/10/07 04:20:28;;;;;;;8.60;7.90;;;8.30;90.00;;;;;;5020416;29;21092;-69
2021/10/07 04:23:00;;;;;;;9.10;8.40;;;8.20;89.90;;;;;;5020036;29;20083;-69
2021/10/07 04:25:32;;;;;;;8.93;8.10;;;8.30;89.90;;;;;;5007037;29;20081;-69
2021/10/07 04:28:06;;;;;;;8.60;7.90;;;8.20;90.90;;;;;;5017442;29;20096;-68
2021/10/07 04:30:38;;;;;;;8.95;8.20;;;8.20;90.10;;;;;;5019761;29;20515;-68
2021/10/07 04:33:11;;;;;;;8.70;7.90;;;8.20;90.00;;;;;;5018735;29;20049;-68
2021/10/07 04:35:43;;;;;;;8.52;7.80;;;8.20;90.20;;;;;;5002656;29;20051;-67
2021/10/07 04:38:15;;;;;;;8.70;8.00;;;8.20;90.10;;;;;;5002231;29;20598;-68
2021/10/07 04:40:47;;;;;;;8.85;8.15;;;8.30;90.00;;;;;;5018277;29;20055;-68
2021/10/07 04:43:22;;;;;;;8.40;7.60;;;8.30;90.20;;;;;;5018663;29;20053;-68
2021/10/07 04:45:54;;;;;;;8.32;7.63;;;8.30;90.30;;;;;;5018272;29;20041;-69
2021/10/07 04:48:26;;;;;;;8.70;8.00;;;8.30;90.50;;;;;;5017934;29;20428;-68
2021/10/07 04:50:58;;;;;;;8.10;7.50;;;8.30;90.30;;;;;;5019749;29;20592;-70
2021/10/07 04:53:30;;;;;;;8.88;8.18;;;8.20;90.30;;;;;;5000848;29;20057;-68
2021/10/07 04:56:02;;;;;;;8.40;7.70;;;8.30;90.30;;;;;;5019448;29;20045;-68
2021/10/07 04:58:34;;;;;;;9.13;8.43;;;8.30;90.70;;;;;;5018285;29;20163;-68
2021/10/07 05:01:06;;;;;;;9.05;8.25;;;8.20;90.60;;;;;;5018044;29;20102;-68
2021/10/07 05:03:38;;;;;;;8.40;7.70;;;8.20;90.60;;;;;;5019393;29;20049;-68
2021/10/07 05:06:10;;;;;;;8.57;7.78;;;8.20;90.80;;;;;;5015912;29;20398;-68
2021/10/07 05:08:42;;;;;;;8.93;8.18;;;8.20;91.10;;;;;;5001864;29;20077;-68
2021/10/07 05:11:14;;;;;;;8.80;8.10;;;8.20;91.10;;;;;;5016887;29;20133;-69
2021/10/07 05:13:46;;;;;;;8.80;8.00;;;8.20;90.90;;;;;;5017520;29;20050;-67
2021/10/07 05:16:18;;;;;;;8.77;8.07;;;8.20;90.90;;;;;;5017063;29;20785;-67
2021/10/07 05:18:50;;;;;;;8.80;8.10;;;8.20;90.40;;;;;;5016504;29;20053;-68
2021/10/07 05:21:22;;;;;;;8.65;7.95;;;8.20;90.50;;;;;;5016263;29;20137;-68
2021/10/07 05:23:53;;;;;;;8.60;7.90;;;8.30;90.50;;;;;;5017260;29;20046;-67
2021/10/07 05:26:25;;;;;;;8.88;8.18;;;8.30;90.90;;;;;;5014848;29;20629;-68
2021/10/07 05:28:57;;;;;;;8.98;8.27;;;8.30;91.00;;;;;;5017238;29;20105;-68
2021/10/07 05:31:29;;;;;;;9.20;8.40;;;8.20;91.10;;;;;;4998965;29;20067;-67
2021/10/07 05:34:01;;;;;;;8.68;7.88;;;8.20;90.60;;;;;;5016281;29;20752;-68
2021/10/07 05:36:33;;;;;;;8.93;7.95;;;8.30;91.30;;;;;;5016075;29;20567;-68
2021/10/07 05:39:05;;;;;;;8.82;8.13;;;8.30;90.50;;;;;;5016103;29;20054;-68
2021/10/07 05:41:37;;;;;;;8.38;7.63;;;8.30;90.70;;;;;;5013991;29;20192;-69
2021/10/07 05:44:10;;;;;;;8.50;7.80;;;8.20;90.30;;;;;;5015734;29;20084;-68
2021/10/07 05:46:42;;;;;;;8.40;7.70;;;8.20;90.60;;;;;;5015184;29;20471;-68
2021/10/07 05:49:14;;;;;;;8.43;7.72;;;8.20;90.80;;;;;;5012337;29;20049;-68
2021/10/07 05:51:46;;;;;;;8.48;7.78;;;8.20;90.80;;;;;;5011720;29;20133;-68
2021/10/07 05:54:19;;;;;;;8.40;7.70;;;8.20;90.80;;;;;;5014558;29;20081;-68
2021/10/07 05:56:51;;;;;;;9.05;8.25;;;8.10;90.30;;;;;;5011981;29;20069;-68
2021/10/07 05:59:23;;;;;;;8.30;7.60;;;8.10;90.10;;;;;;5015711;29;20068;-69
2021/10/07 06:01:55;;;;;;;8.45;7.75;;;8.00;90.10;;;;;;5014688;29;20493;-69
2021/10/07 06:04:27;;;;;;;8.30;7.60;;;8.10;90.40;;;;;;5014256;29;20088;-68
2021/10/07 06:06:59;;;;;;;8.23;7.53;;;8.10;90.10;;;;;;5015973;29;20057;-69
2021/10/07 06:09:31;;;;;;;8.68;7.97;;;8.10;90.60;;;;;;5013932;29;20465;-68
2021/10/07 06:12:03;;;;;;;8.27;7.55;;;8.20;90.50;;;;;;5014939;29;20476;-68
2021/10/07 06:14:35;;;;;;;8.68;7.88;;;8.20;90.30;;;;;;5013030;29;20052;-68
2021/10/07 06:17:09;;;;;;;8.50;7.80;;;8.20;90.30;;;;;;5017019;29;20053;-69
2021/10/07 06:19:45;;;;;;;8.70;7.90;;;8.20;90.40;;;;;;5000181;29;20524;-68
2021/10/07 06:22:17;;;;;;;8.60;7.80;;;8.20;90.40;;;;;;5002058;29;20129;-69
2021/10/07 06:24:49;;;;;;;8.73;8.02;;;8.30;90.00;;;;;;5016109;29;20053;-68
2021/10/07 06:27:20;;;;;;;8.45;7.75;;;8.40;89.80;;;;;;5017497;29;20857;-68
2021/10/07 06:29:52;;;;;;;8.90;8.18;;;8.40;89.70;;;;;;5016008;29;20050;-68
2021/10/07 06:32:24;;;;;;;8.98;8.13;;;8.50;89.70;;;;;;5017275;29;20153;-69
2021/10/07 06:34:56;;;;;;;9.05;8.25;;;8.50;89.60;;;;;;5017491;29;20126;-68
2021/10/07 06:37:28;;;;;;;9.55;8.75;;;8.50;89.50;;;;;;5000565;29;20152;-68
2021/10/07 06:40:00;;;;;;;9.60;8.73;;;8.60;89.50;;;;;;4999948;29;20289;-69
2021/10/07 06:42:34;;;;;;;9.00;8.30;;;8.60;89.30;;;;;;5015760;29;20150;-68
2021/10/07 06:45:07;;;;;;;8.82;8.13;;;8.70;89.30;;;;;;5015659;29;20045;-68
2021/10/07 06:47:40;;;;;;;9.00;8.30;;;8.80;89.50;;;;;;5015835;29;20050;-68
2021/10/07 06:50:12;;;;;;;8.88;8.18;;;8.80;87.80;;;;;;5014477;29;20052;-68
2021/10/07 06:52:44;;;;;;;8.73;8.02;;;8.80;87.40;;;;;;5018479;29;20041;-68
2021/10/07 06:55:16;;;;;;;9.18;8.40;;;8.90;88.10;;;;;;5016088;29;20077;-68
2021/10/07 06:57:48;;;;;;;9.65;8.85;;;8.90;88.70;;;;;;5015548;29;20155;-68
2021/10/07 07:00:20;;;;;;;9.95;9.00;;;9.00;88.20;;;;;;5016178;29;20061;-67
2021/10/07 07:02:53;;;;;;;10.02;9.23;;;9.10;88.30;;;;;;5016777;29;20053;-68
2021/10/07 07:05:26;;;;;;;10.55;9.55;;;9.10;88.00;;;;;;5016200;29;20049;-69
2021/10/07 07:07:58;;;;;;;10.02;9.13;;;9.20;88.20;;;;;;5014422;29;20546;-68
2021/10/07 07:10:30;;;;;;;10.20;9.30;;;9.20;88.10;;;;;;5015742;29;20572;-70
2021/10/07 07:13:06;;;;;;;10.48;9.45;;;9.20;88.50;;;;;;5013992;29;20057;-68
2021/10/07 07:15:38;;;;;;;10.32;9.32;;;9.30;88.50;;;;;;5015734;29;20045;-68
2021/10/07 07:18:09;;;;;;;10.35;9.50;;;9.30;89.00;;;;;;5013135;29;20124;-69
2021/10/07 07:20:42;;;;;;;10.30;9.40;;;9.40;88.30;;;;;;4998148;29;20098;-68
2021/10/07 07:23:14;;;;;;;9.65;8.85;;;9.40;88.50;;;;;;4998954;29;20138;-68
2021/10/07 07:25:46;;;;;;;9.90;8.90;;;9.40;88.40;;;;;;5014248;29;20256;-68
2021/10/07 07:28:18;;;;;;;10.00;9.02;;;9.50;88.60;;;;;;5014011;29;20161;-68
2021/10/07 07:30:50;;;;;;;9.70;8.90;;;9.50;88.50;;;;;;5014998;29;20045;-68
2021/10/07 07:33:25;;;;;;;9.20;8.48;;;9.50;88.10;;;;;;5013795;29;20148;-69
2021/10/07 07:35:57;;;;;;;9.50;8.77;;;9.50;88.00;;;;;;5014270;29;20121;-67
2021/10/07 07:38:29;;;;;;;9.55;8.75;;;9.50;88.00;;;;;;5014388;29;20132;-69
2021/10/07 07:41:01;;;;;;;9.68;8.77;;;9.60;88.10;;;;;;5012860;29;20623;-71
2021/10/07 07:43:33;;;;;;;9.68;8.77;;;9.70;88.00;;;;;;5017918;29;20659;-69
2021/10/07 07:46:05;;;;;;;9.73;8.82;;;9.70;87.80;;;;;;5016918;29;20049;-68
2021/10/07 07:48:37;;;;;;;10.05;9.15;;;9.70;87.70;;;;;;5016343;29;20217;-69
2021/10/07 07:51:09;;;;;;;10.07;9.27;;;9.80;87.80;;;;;;5017992;29;20452;-69
2021/10/07 07:53:41;;;;;;;10.13;9.32;;;9.90;87.20;;;;;;5016904;29;20500;-69
2021/10/07 07:56:15;;;;;;;10.70;9.80;;;9.90;86.10;;;;;;5016830;29;20485;-69
2021/10/07 07:58:48;;;;;;;10.50;9.70;;;9.90;86.40;;;;;;5017654;29;20041;-68
2021/10/07 08:01:24;;;;;;;10.15;9.35;;;9.90;87.60;;;;;;5004343;29;20140;-68
2021/10/07 08:03:57;;;;;;;10.35;9.45;;;10.00;86.70;;;;;;5017030;29;20052;-68
2021/10/07 08:06:29;;;;;;;9.80;9.00;;;10.00;86.30;;;;;;5017837;29;20197;-67
2021/10/07 08:09:04;;;;;;;9.80;9.00;;;10.00;85.20;;;;;;5019262;29;20041;-68
2021/10/07 08:11:39;;;;;;;9.90;9.10;;;10.10;86.20;;;;;;5018316;29;20140;-68
2021/10/07 08:14:11;;;;;;;9.60;8.90;;;10.10;86.20;;;;;;5017583;29;20638;-68
2021/10/07 08:16:44;;;;;;;9.48;8.68;;;10.20;85.80;;;;;;5018125;29;20060;-68
2021/10/07 08:19:16;;;;;;;9.55;8.75;;;10.10;85.60;;;;;;5005260;29;20053;-67
2021/10/07 08:21:48;;;;;;;10.13;9.02;;;10.20;85.20;;;;;;5019175;29;20061;-67
2021/10/07 08:24:22;;;;;;;9.50;8.75;;;10.20;84.70;;;;;;5019623;29;20137;-67
2021/10/07 08:26:54;;;;;;;9.80;8.93;;;10.10;84.40;;;;;;5018526;29;20049;-68
2021/10/07 08:29:27;;;;;;;9.50;8.80;;;10.20;84.30;;;;;;5018457;29;20128;-67
2021/10/07 08:31:59;;;;;;;9.98;9.07;;;10.20;84.50;;;;;;5019400;29;20077;-68
2021/10/07 08:34:31;;;;;;;10.52;9.63;;;10.20;84.30;;;;;;5019040;29;20268;-67
2021/10/07 08:37:04;;;;;;;10.43;9.32;;;10.50;84.20;;;;;;5019512;29;20661;-68
2021/10/07 08:39:37;;;;;;;10.32;9.52;;;10.80;84.60;;;;;;5019490;29;20041;-72
2021/10/07 08:42:09;;;;;;;10.50;9.70;;;10.90;84.10;;;;;;5001865;29;20060;-70
2021/10/07 08:44:43;;;;;;;11.05;10.05;;;11.00;84.30;;;;;;5005021;29;20069;-70
2021/10/07 08:47:16;;;;;;;10.40;9.50;;;11.20;84.10;;;;;;5019840;29;20676;-69
2021/10/07 08:49:52;;;;;;;10.85;9.85;;;11.30;82.90;;;;;;5002587;29;20524;-68
2021/10/07 08:52:24;;;;;;;10.57;9.77;;;11.40;82.70;;;;;;5003404;29;20516;-70
2021/10/07 08:54:55;;;;;;;10.30;9.48;;;11.40;82.50;;;;;;5017799;29;20052;-67
2021/10/07 08:57:28;;;;;;;10.38;9.50;;;11.40;82.30;;;;;;5018362;29;20049;-69
2021/10/07 09:00:00;;;;;;;10.70;9.70;;;11.40;82.20;;;;;;5019161;29;20053;-69
2021/10/07 09:02:33;;;;;;;10.80;9.95;;;11.40;82.00;;;;;;5018805;29;20050;-69
2021/10/07 09:05:07;;;;;;;10.50;9.60;;;11.40;81.80;;;;;;5018816;29;20153;-68
2021/10/07 09:07:58;;;;;;;10.60;9.70;;;11.40;81.70;;;;;;5001503;29;20057;-69
2021/10/07 09:10:56;;;;;;;10.13;9.32;;;11.30;80.80;;;;;;5018273;29;20576;-68
2021/10/07 09:13:28;;;;;;;9.65;8.85;;;11.20;80.70;;;;;;5015790;29;20145;-69
2021/10/07 09:16:01;;;;;;;9.68;8.88;;;11.20;81.70;;;;;;5014592;29;20049;-68
2021/10/07 09:18:33;;;;;;;9.60;8.90;;;11.10;82.00;;;;;;5016471;29;20053;-68
2021/10/07 09:21:05;;;;;;;9.80;9.00;;;11.10;79.50;;;;;;5014302;29;20052;-70
2021/10/07 09:23:37;;;;;;;10.07;9.13;;;11.10;81.50;;;;;;5016219;29;20409;-70
2021/10/07 09:26:11;;;;;;;9.60;8.90;;;11.00;80.50;;;;;;5012892;29;20089;-68
2021/10/07 09:29:00;;;;;;;10.20;9.40;;;10.90;81.30;;;;;;5015323;29;20699;-68
2021/10/07 09:31:34;;;;;;;10.30;9.45;;;10.90;82.00;;;;;;5013852;29;20048;-68
2021/10/07 09:34:06;;;;;;;10.05;9.23;;;11.00;82.70;;;;;;5017833;29;20079;-68
2021/10/07 09:36:39;;;;;;;10.45;9.60;;;11.00;82.90;;;;;;5014353;29;20057;-68
2021/10/07 09:39:11;;;;;;;10.48;9.68;;;11.10;83.40;;;;;;5019268;29;20076;-68
2021/10/07 09:41:43;;;;;;;10.93;10.02;;;11.20;83.70;;;;;;5016516;29;20054;-69
2021/10/07 09:44:16;;;;;;;9.80;9.10;;;11.30;83.70;;;;;;5018542;29;20079;-68
2021/10/07 09:46:52;;;;;;;10.73;9.73;;;11.30;82.20;;;;;;5016842;29;20847;-68
2021/10/07 09:49:34;;;;;;;11.15;10.15;;;11.40;81.40;;;;;;5017502;29;20527;-68
2021/10/07 09:52:06;;;;;;;10.90;9.90;;;11.40;81.00;;;;;;5017571;29;20042;-68
2021/10/07 09:54:41;;;;;;;10.70;9.90;;;11.50;81.50;;;;;;5017621;29;20046;-68
2021/10/07 09:57:13;;;;;;;10.95;10.13;;;11.60;81.70;;;;;;5017525;29;20534;-68
2021/10/07 09:59:55;;;;;;;10.90;10.00;;;11.80;83.00;;;;;;5018427;29;20800;-68
2021/10/07 10:02:27;;;;;;;11.25;10.40;;;11.90;81.40;;;;;;5017239;29;20057;-69
2021/10/07 10:05:00;;;;;;;11.55;10.65;;;11.90;80.10;;;;;;5017747;29;20053;-68
2021/10/07 10:07:32;;;;;;;11.00;10.20;;;12.00;80.40;;;;;;5016429;29;20133;-68
2021/10/07 10:10:05;;;;;;;11.77;10.85;;;12.10;79.30;;;;;;5017515;29;20051;-69
2021/10/07 10:12:37;;;;;;;11.70;10.70;;;12.20;78.70;;;;;;5017743;29;20116;-69
2021/10/07 10:15:11;;;;;;;12.00;11.02;;;12.40;78.70;;;;;;5016568;29;20772;-68
2021/10/07 10:17:43;;;;;;;11.07;10.27;;;12.40;77.50;;;;;;5018477;29;20041;-68
2021/10/07 10:20:45;;;;;;;11.48;10.63;;;12.30;78.90;;;;;;5018013;29;20136;-68
2021/10/07 10:23:24;;;;;;;11.32;10.45;;;12.30;80.10;;;;;;5014720;29;20864;-68
2021/10/07 10:26:22;;;;;;;11.50;10.63;;;12.40;79.70;;;;;;5016817;29;20819;-70
2021/10/07 10:28:55;;;;;;;11.35;10.45;;;12.30;80.40;;;;;;5015271;29;20506;-68
2021/10/07 10:31:38;;;;;;;12.00;11.10;;;12.40;79.80;;;;;;5016806;29;20052;-70
2021/10/07 10:34:13;;;;;;;12.32;11.15;;;12.40;78.50;;;;;;5017273;29;20131;-68
2021/10/07 10:36:47;;;;;;;11.90;11.00;;;12.40;79.80;;;;;;5016566;29;20138;-68
2021/10/07 10:39:39;;;;;;;11.70;10.80;;;12.60;80.30;;;;;;5017324;29;20172;-69
2021/10/07 10:42:17;;;;;;;12.05;11.15;;;12.60;78.40;;;;;;5015980;29;20413;-68
2021/10/07 10:44:57;;;;;;;11.73;10.77;;;12.50;78.30;;;;;;5016820;29;20073;-70
2021/10/07 10:47:39;;;;;;;12.30;11.40;;;12.50;79.50;;;;;;5016752;29;20136;-68
2021/10/07 10:50:15;;;;;;;11.35;10.55;;;12.50;79.50;;;;;;5015527;29;20631;-68
2021/10/07 10:52:58;;;;;;;10.93;10.13;;;12.40;76.50;;;;;;5018700;29;20129;-68
2021/10/07 10:55:30;;;;;;;11.18;10.38;;;12.30;77.90;;;;;;5015729;29;20052;-69
2021/10/07 10:58:04;;;;;;;12.00;11.05;;;12.20;78.70;;;;;;5017639;29;20041;-68
2021/10/07 11:00:42;;;;;;;10.98;10.18;;;12.30;78.40;;;;;;5015023;29;20160;-68
2021/10/07 11:03:14;;;;;;;10.98;10.18;;;12.30;79.10;;;;;;5017991;29;20133;-68
2021/10/07 11:06:04;;;;;;;11.30;10.40;;;12.30;78.50;;;;;;5016992;29;20228;-68
2021/10/07 11:08:41;;;;;;;11.65;10.80;;;12.60;79.10;;;;;;5018268;29;20726;-68
2021/10/07 11:11:25;;;;;;;11.90;11.00;;;12.90;76.90;;;;;;4998662;29;20417;-69
2021/10/07 11:13:58;;;;;;;11.73;10.93;;;13.10;77.30;;;;;;5017603;29;20605;-67
2021/10/07 11:16:32;;;;;;;11.35;10.52;;;13.30;77.40;;;;;;5016608;29;20077;-68
2021/10/07 11:19:05;;;;;;;11.80;10.90;;;13.50;75.90;;;;;;5021131;29;20045;-70
2021/10/07 11:21:37;;;;;;;11.85;10.98;;;13.50;75.80;;;;;;5019155;29;20129;-69
2021/10/07 11:24:13;;;;;;;11.18;10.38;;;13.50;76.70;;;;;;5021298;29;20473;-70
2021/10/07 11:26:45;;;;;;;11.43;10.52;;;13.40;75.70;;;;;;5019816;29;20098;-69
2021/10/07 11:29:16;;;;;;;11.43;10.63;;;13.40;76.30;;;;;;5019735;29;20049;-69
2021/10/07 11:31:49;;;;;;;11.50;10.70;;;13.40;75.80;;;;;;5018506;29;20511;-69
2021/10/07 11:34:21;;;;;;;12.00;11.20;;;13.60;74.70;;;;;;5016905;29;20124;-69
2021/10/07 11:36:53;;;;;;;11.60;10.80;;;13.90;74.40;;;;;;5017379;29;20180;-69
2021/10/07 11:39:25;;;;;;;11.70;10.90;;;14.10;73.90;;;;;;5016470;29;20049;-69
2021/10/07 11:41:58;;;;;;;11.60;10.80;;;14.10;74.60;;;;;;5017059;29;20073;-69
2021/10/07 11:44:30;;;;;;;11.35;10.55;;;14.00;74.20;;;;;;5019562;29;20054;-70
2021/10/07 11:47:02;;;;;;;11.10;10.30;;;13.80;74.10;;;;;;5015352;29;20052;-71
2021/10/07 11:49:34;;;;;;;11.18;10.38;;;13.60;74.40;;;;;;5019541;29;20069;-69
2021/10/07 11:52:07;;;;;;;11.00;10.20;;;13.50;74.80;;;;;;5019053;29;20504;-67
2021/10/07 11:54:39;;;;;;;10.82;10.02;;;13.40;73.60;;;;;;5019647;29;20095;-68
2021/10/07 11:57:11;;;;;;;11.18;10.38;;;13.30;74.70;;;;;;5017670;29;20045;-68
2021/10/07 11:59:43;;;;;;;11.00;10.20;;;13.40;74.90;;;;;;5016980;29;20055;-68
2021/10/07 12:02:15;;;;;;;10.60;9.80;;;13.30;73.40;;;;;;5017302;29;20176;-69
2021/10/07 12:04:47;;;;;;;11.55;10.50;;;13.30;73.60;;;;;;5004549;29;20230;-68
2021/10/07 12:07:19;;;;;;;11.00;10.13;;;13.30;73.70;;;;;;5000959;29;20424;-67
2021/10/07 12:09:51;;;;;;;10.82;10.02;;;13.30;73.90;;;;;;5020236;29;20494;-67
2021/10/07 12:12:23;;;;;;;10.52;9.73;;;13.20;72.10;;;;;;5020384;29;20088;-68
2021/10/07 12:14:55;;;;;;;10.82;10.02;;;13.20;72.70;;;;;;5019927;29;20555;-68
2021/10/07 12:17:27;;;;;;;10.68;9.88;;;13.20;72.10;;;;;;5019210;29;20137;-68
2021/10/07 12:19:58;;;;;;;10.77;9.98;;;13.20;72.80;;;;;;5019650;29;20049;-70
2021/10/07 12:22:32;;;;;;;10.60;9.80;;;13.10;72.30;;;;;;5020504;29;20498;-69
2021/10/07 12:25:05;;;;;;;10.77;9.98;;;13.10;73.00;;;;;;5003930;29;20639;-68
2021/10/07 12:27:37;;;;;;;10.75;9.77;;;13.10;72.30;;;;;;5018425;29;20140;-68
2021/10/07 12:30:10;;;;;;;10.30;9.50;;;12.90;72.90;;;;;;5016684;29;20038;-68
2021/10/07 12:32:41;;;;;;;10.48;9.68;;;12.80;73.70;;;;;;5020029;29;20185;-68
2021/10/07 12:35:21;;;;;;;10.52;9.73;;;12.80;75.00;;;;;;5018431;29;20041;-68
2021/10/07 12:37:56;;;;;;;10.63;9.77;;;12.80;72.80;;;;;;5020648;29;20454;-67
2021/10/07 12:40:29;;;;;;;10.65;9.85;;;12.80;74.00;;;;;;5019469;29;20056;-67
2021/10/07 12:43:13;;;;;;;10.70;9.90;;;12.80;74.50;;;;;;5017824;29;20081;-70
2021/10/07 12:46:03;;;;;;;10.50;9.60;;;12.80;73.90;;;;;;5019607;29;20140;-69
2021/10/07 12:48:55;;;;;;;10.23;9.43;;;12.80;73.80;;;;;;5018686;29;20045;-69
2021/10/07 12:51:32;;;;;;;10.63;9.82;;;12.80;73.70;;;;;;5018647;29;20135;-69
2021/10/07 12:54:11;;;;;;;10.20;9.40;;;12.80;73.80;;;;;;5018151;29;20158;-71
2021/10/07 12:56:46;;;;;;;10.65;9.85;;;12.80;72.30;;;;;;5016771;29;20060;-68
2021/10/07 12:59:18;;;;;;;10.77;9.98;;;12.70;71.90;;;;;;5018539;29;20057;-69
2021/10/07 13:01:50;;;;;;;10.40;9.60;;;12.70;70.60;;;;;;5019445;29;20439;-69
2021/10/07 13:04:24;;;;;;;10.25;9.45;;;12.60;71.30;;;;;;5017898;29;20049;-68
2021/10/07 13:07:07;;;;;;;10.50;9.68;;;12.60;72.60;;;;;;5019628;29;20085;-69
2021/10/07 13:09:40;;;;;;;10.48;9.68;;;12.60;72.80;;;;;;5019814;29;20049;-70
2021/10/07 13:12:12;;;;;;;10.00;9.20;;;12.60;73.60;;;;;;5019276;29;20072;-70
2021/10/07 13:14:56;;;;;;;10.07;9.27;;;12.60;73.90;;;;;;5002100;29;20583;-68
2021/10/07 13:17:28;;;;;;;9.90;9.10;;;12.70;73.40;;;;;;5017538;29;20810;-67
2021/10/07 13:20:00;;;;;;;9.88;9.18;;;12.70;74.30;;;;;;5018575;29;20071;-68
2021/10/07 13:22:32;;;;;;;10.00;9.20;;;12.70;74.20;;;;;;5018172;29;20214;-69